Time;durP1;ratioP1;P1;durP2;ratioP2;P2;SDS_P1;SDS_P2;PMS_P1;PMS_P2;Temp;Humidity;BMP_temperature;BMP_pressure;BME280_temperature;BME280_humidity;BME280_pressure;Samples;Min_cycle;Max_cycle;Signal;HPM_P1;HPM_P2
2021/01/10 00:00:36;;;;;;;8.23;5.07;;;2.70;82.30;;;;;;5012884;28;20022;-90
2021/01/10 00:03:02;;;;;;;7.63;4.40;;;2.70;82.20;;;;;;5014412;28;20022;-89
2021/01/10 00:05:30;;;;;;;7.25;4.50;;;2.80;82.30;;;;;;5013876;28;20496;-89
2021/01/10 00:07:57;;;;;;;7.50;4.85;;;2.80;82.30;;;;;;5013138;28;20064;-89
2021/01/10 00:10:23;;;;;;;9.70;5.85;;;2.70;82.20;;;;;;5012648;28;20022;-89
2021/01/10 00:12:49;;;;;;;9.73;5.72;;;2.70;82.20;;;;;;5013012;28;20034;-89
2021/01/10 00:15:17;;;;;;;8.32;5.40;;;2.70;82.20;;;;;;5013478;28;20112;-88
2021/01/10 00:17:46;;;;;;;9.80;5.72;;;2.70;82.10;;;;;;5023013;28;20018;-88
2021/01/10 00:20:12;;;;;;;10.43;5.47;;;2.70;82.10;;;;;;5017404;28;20034;-89
2021/01/10 00:22:38;;;;;;;9.52;5.32;;;2.70;82.10;;;;;;5014452;28;20030;-89
2021/01/10 00:25:10;;;;;;;8.80;5.45;;;2.70;82.10;;;;;;5016763;28;20033;-89
2021/01/10 00:27:36;;;;;;;9.63;4.97;;;2.70;82.10;;;;;;5026394;28;20030;-89
2021/01/10 00:30:06;;;;;;;10.18;4.50;;;2.70;82.10;;;;;;5026086;28;20026;-88
2021/01/10 00:32:31;;;;;;;10.65;4.43;;;2.70;82.20;;;;;;5040231;28;20069;-89
2021/01/10 00:34:57;;;;;;;9.18;4.70;;;2.70;82.20;;;;;;5036178;28;20010;-89
2021/01/10 00:37:23;;;;;;;6.95;4.25;;;2.70;82.20;;;;;;5035932;28;20046;-89
2021/01/10 00:39:48;;;;;;;7.30;4.30;;;2.70;82.20;;;;;;5023044;28;20027;-89
2021/01/10 00:42:16;;;;;;;6.82;4.25;;;2.70;82.20;;;;;;5035590;28;20165;-88
2021/01/10 00:44:43;;;;;;;7.80;3.75;;;2.70;82.20;;;;;;5038493;28;20017;-88
2021/01/10 00:47:09;;;;;;;11.70;5.90;;;2.50;82.10;;;;;;5003503;28;20018;-87
2021/01/10 00:49:35;;;;;;;9.55;4.60;;;2.70;82.20;;;;;;5015935;28;20033;-89
2021/01/10 00:52:01;;;;;;;8.00;4.75;;;2.70;82.20;;;;;;5014378;28;20036;-88
2021/01/10 00:54:28;;;;;;;7.95;4.47;;;2.60;82.20;;;;;;5011832;28;20027;-88
2021/01/10 00:56:54;;;;;;;6.18;3.83;;;2.60;82.20;;;;;;5000798;28;20010;-89
2021/01/10 00:59:20;;;;;;;6.88;4.05;;;2.60;82.20;;;;;;5010988;28;20029;-89
2021/01/10 01:01:45;;;;;;;7.97;4.40;;;2.60;82.20;;;;;;5008668;28;20087;-89
2021/01/10 01:04:12;;;;;;;6.10;3.42;;;2.60;82.20;;;;;;5005532;28;20471;-89
2021/01/10 01:06:38;;;;;;;7.78;3.70;;;2.60;82.30;;;;;;5009491;28;20038;-89
2021/01/10 01:09:06;;;;;;;5.43;3.70;;;2.60;82.20;;;;;;5021157;28;20098;-88
2021/01/10 01:11:34;;;;;;;6.47;4.07;;;2.50;82.10;;;;;;5015633;28;20048;-88
2021/01/10 01:14:00;;;;;;;6.55;3.40;;;2.50;82.10;;;;;;5014210;28;20040;-88
2021/01/10 01:16:26;;;;;;;7.75;3.58;;;2.50;82.10;;;;;;5005633;28;20022;-88
2021/01/10 01:18:52;;;;;;;5.93;3.35;;;2.50;82.20;;;;;;5011088;28;20088;-88
2021/01/10 01:21:21;;;;;;;7.63;3.70;;;2.50;82.10;;;;;;4998464;28;20032;-89
2021/01/10 01:23:49;;;;;;;6.32;3.20;;;2.40;82.10;;;;;;5009299;28;20026;-88
2021/01/10 01:26:26;;;;;;;3.80;2.80;;;2.40;82.20;;;;;;4996936;28;20033;-88
2021/01/10 01:28:52;;;;;;;5.60;3.22;;;2.40;82.30;;;;;;4992346;28;20038;-89
2021/01/10 01:31:22;;;;;;;5.38;3.45;;;2.40;82.20;;;;;;5000324;28;20463;-89
2021/01/10 01:33:49;;;;;;;4.90;3.13;;;2.30;82.10;;;;;;5011744;28;20034;-88
2021/01/10 01:36:18;;;;;;;4.05;2.88;;;2.30;82.20;;;;;;4999658;28;20044;-89
2021/01/10 01:38:45;;;;;;;7.25;2.63;;;2.30;82.30;;;;;;5011150;28;20483;-88
2021/01/10 01:41:12;;;;;;;4.72;2.88;;;2.20;82.20;;;;;;5016081;28;20128;-88
2021/01/10 01:43:39;;;;;;;4.90;3.10;;;2.20;82.10;;;;;;5008244;28;20035;-89
2021/01/10 01:46:07;;;;;;;7.32;3.67;;;2.20;82.20;;;;;;5002560;28;20057;-88
2021/01/10 01:48:32;;;;;;;5.38;3.33;;;2.20;83.00;;;;;;5010057;28;20025;-88
2021/01/10 01:50:59;;;;;;;4.03;2.67;;;2.10;82.30;;;;;;4995859;28;20563;-88
2021/01/10 01:53:26;;;;;;;6.68;2.90;;;2.10;82.40;;;;;;5003364;28;20077;-88
2021/01/10 01:55:56;;;;;;;4.32;2.72;;;2.10;82.50;;;;;;5005235;28;20116;-88
2021/01/10 01:58:23;;;;;;;5.15;2.90;;;2.10;82.50;;;;;;5005587;28;20038;-90
2021/01/10 02:00:48;;;;;;;4.40;2.60;;;2.10;82.40;;;;;;5000589;28;20032;-90
2021/01/10 02:03:37;;;;;;;3.58;2.58;;;2.10;82.40;;;;;;5013327;28;20022;-90
2021/01/10 02:06:15;;;;;;;3.75;2.60;;;2.00;82.20;;;;;;5014250;28;20051;-90
2021/01/10 02:08:41;;;;;;;4.07;2.78;;;1.90;82.30;;;;;;5022038;28;20097;-90
2021/01/10 02:11:10;;;;;;;3.35;2.55;;;1.90;82.40;;;;;;5021869;28;20076;-90
2021/01/10 02:13:37;;;;;;;6.13;2.97;;;1.90;82.50;;;;;;4999240;28;20034;-91
2021/01/10 02:16:04;;;;;;;3.13;2.60;;;1.90;82.50;;;;;;5008378;28;20472;-89
2021/01/10 02:18:32;;;;;;;4.40;2.70;;;1.90;82.50;;;;;;5011854;28;20064;-90
2021/01/10 02:21:17;;;;;;;4.38;2.70;;;1.90;82.50;;;;;;5002572;28;20610;-90
2021/01/10 02:23:44;;;;;;;4.65;2.72;;;1.90;82.40;;;;;;5005451;28;20113;-89
2021/01/10 02:26:10;;;;;;;7.43;3.42;;;1.90;82.40;;;;;;4996061;28;20093;-89
2021/01/10 02:28:36;;;;;;;5.80;3.08;;;1.90;82.50;;;;;;5013735;28;20029;-89
2021/01/10 02:31:05;;;;;;;4.07;2.80;;;1.90;82.40;;;;;;5012385;28;20026;-88
2021/01/10 02:33:37;;;;;;;6.07;3.60;;;1.90;82.50;;;;;;5006049;28;20105;-88
2021/01/10 02:36:08;;;;;;;4.53;3.17;;;1.80;82.30;;;;;;5009876;28;20033;-87
2021/01/10 02:38:43;;;;;;;6.13;3.13;;;1.80;82.50;;;;;;5010400;28;20061;-86
2021/01/10 02:41:33;;;;;;;7.05;3.78;;;1.90;82.50;;;;;;5021744;28;20025;-86
2021/01/10 02:44:09;;;;;;;5.32;2.85;;;1.90;82.40;;;;;;5009894;28;20034;-87
2021/01/10 02:46:38;;;;;;;4.32;2.97;;;1.80;82.30;;;;;;5007502;28;20053;-86
2021/01/10 02:49:04;;;;;;;5.20;3.08;;;1.80;82.40;;;;;;5010728;28;20136;-87
2021/01/10 02:51:29;;;;;;;4.65;3.00;;;1.80;82.40;;;;;;5011230;28;20026;-87
2021/01/10 02:53:55;;;;;;;6.82;3.10;;;1.80;83.10;;;;;;5016934;28;20038;-87
2021/01/10 02:56:21;;;;;;;4.22;2.90;;;1.70;82.40;;;;;;5014906;28;20033;-86
2021/01/10 02:58:49;;;;;;;5.93;2.95;;;1.70;82.50;;;;;;5017114;28;20026;-86
2021/01/10 03:01:16;;;;;;;4.55;3.00;;;1.70;82.50;;;;;;5003959;28;20522;-86
2021/01/10 03:03:42;;;;;;;4.57;2.90;;;1.80;82.50;;;;;;5002709;28;20029;-86
2021/01/10 03:06:08;;;;;;;5.72;3.25;;;1.70;82.40;;;;;;5010753;28;20038;-87
2021/01/10 03:08:35;;;;;;;6.85;3.10;;;1.70;82.50;;;;;;5003433;28;20030;-88
2021/01/10 03:11:01;;;;;;;4.55;2.60;;;1.70;82.50;;;;;;4996527;28;20125;-87
2021/01/10 03:13:27;;;;;;;5.18;3.15;;;1.70;82.50;;;;;;5007674;28;20112;-87
2021/01/10 03:15:52;;;;;;;5.47;3.08;;;1.70;82.40;;;;;;5008541;28;20021;-88
2021/01/10 03:18:22;;;;;;;4.32;2.60;;;1.70;82.40;;;;;;5006547;28;20033;-86
2021/01/10 03:20:49;;;;;;;10.63;6.07;;;1.60;82.40;;;;;;4998850;28;20022;-86
2021/01/10 03:23:15;;;;;;;6.32;3.55;;;1.60;82.50;;;;;;5012678;28;20035;-87
2021/01/10 03:25:41;;;;;;;4.75;3.00;;;1.60;83.20;;;;;;5014138;28;20045;-87
2021/01/10 03:28:06;;;;;;;4.45;3.25;;;1.60;82.60;;;;;;5014392;28;20029;-86
2021/01/10 03:30:33;;;;;;;4.38;2.92;;;1.60;82.70;;;;;;5011564;28;20026;-87
2021/01/10 03:32:58;;;;;;;4.88;3.20;;;1.60;82.80;;;;;;5013627;28;20783;-86
2021/01/10 03:35:26;;;;;;;5.72;3.20;;;1.60;82.70;;;;;;5010634;28;20041;-87
2021/01/10 03:37:51;;;;;;;5.00;3.10;;;1.60;82.50;;;;;;5013588;28;20032;-85
2021/01/10 03:40:17;;;;;;;6.05;3.72;;;1.60;82.50;;;;;;5024921;28;20018;-86
2021/01/10 03:42:43;;;;;;;4.57;3.03;;;1.60;82.50;;;;;;5027136;28;20006;-86
2021/01/10 03:45:10;;;;;;;4.30;2.88;;;1.60;82.30;;;;;;5031529;28;20022;-86
2021/01/10 03:47:36;;;;;;;4.15;3.03;;;1.70;82.50;;;;;;5021588;28;20232;-87
2021/01/10 03:50:05;;;;;;;4.43;2.80;;;1.70;82.40;;;;;;5019811;28;20105;-86
2021/01/10 03:52:30;;;;;;;4.57;3.05;;;1.70;82.40;;;;;;5016106;28;20050;-85
2021/01/10 03:54:56;;;;;;;5.85;2.88;;;1.70;82.40;;;;;;5013776;28;20026;-86
2021/01/10 03:57:21;;;;;;;5.05;3.25;;;1.70;82.30;;;;;;5020905;28;20061;-86
2021/01/10 03:59:47;;;;;;;6.38;3.50;;;1.70;82.40;;;;;;5023770;28;20553;-86
2021/01/10 04:02:12;;;;;;;5.25;3.08;;;1.70;82.50;;;;;;5018628;28;20017;-86
2021/01/10 04:04:38;;;;;;;4.60;3.40;;;1.70;82.60;;;;;;5021172;28;20029;-87
2021/01/10 04:07:06;;;;;;;4.93;3.47;;;1.80;82.60;;;;;;5015832;28;20034;-86
2021/01/10 04:09:31;;;;;;;4.28;3.17;;;1.80;82.50;;;;;;5018777;28;20114;-87
2021/01/10 04:11:57;;;;;;;6.28;3.58;;;1.80;82.50;;;;;;5013940;28;20188;-87
2021/01/10 04:14:22;;;;;;;5.75;3.40;;;1.90;82.40;;;;;;5009665;28;20029;-87
2021/01/10 04:16:51;;;;;;;4.68;2.80;;;1.90;82.40;;;;;;5006565;28;20022;-88
2021/01/10 04:19:17;;;;;;;6.32;3.40;;;1.90;82.40;;;;;;5002965;28;20072;-88
2021/01/10 04:21:42;;;;;;;4.45;3.35;;;1.80;82.40;;;;;;5005680;28;20022;-89
2021/01/10 04:24:08;;;;;;;5.00;3.40;;;1.90;82.50;;;;;;5012412;28;20041;-88
2021/01/10 04:26:38;;;;;;;4.85;3.00;;;1.90;82.40;;;;;;5014742;28;20030;-89
2021/01/10 04:29:04;;;;;;;4.82;3.40;;;1.90;82.40;;;;;;5010236;28;20478;-88
2021/01/10 04:31:30;;;;;;;4.60;3.17;;;1.90;82.30;;;;;;5018256;28;20096;-88
2021/01/10 04:33:55;;;;;;;5.55;3.10;;;1.90;82.30;;;;;;5014344;28;20060;-88
2021/01/10 04:36:21;;;;;;;6.38;3.45;;;1.90;82.20;;;;;;5016883;28;20151;-87
2021/01/10 04:38:46;;;;;;;5.15;3.35;;;1.90;82.20;;;;;;5011633;28;20034;-88
2021/01/10 04:41:15;;;;;;;5.53;3.38;;;2.00;82.30;;;;;;5022129;28;20076;-87
2021/01/10 04:43:41;;;;;;;6.32;3.35;;;2.00;82.30;;;;;;5019274;28;20105;-87
2021/01/10 04:46:07;;;;;;;5.18;2.97;;;2.00;82.10;;;;;;5007485;28;20064;-86
2021/01/10 04:48:33;;;;;;;5.70;3.92;;;1.90;82.10;;;;;;5013507;28;20029;-87
2021/01/10 04:50:59;;;;;;;5.72;3.55;;;1.90;82.20;;;;;;5019694;28;20025;-86
2021/01/10 04:53:29;;;;;;;4.63;2.63;;;1.90;82.20;;;;;;5016013;28;20117;-87
2021/01/10 04:55:58;;;;;;;5.10;3.58;;;1.90;82.30;;;;;;5015170;28;20026;-87
2021/01/10 04:58:29;;;;;;;6.95;3.35;;;1.90;82.40;;;;;;5009454;28;20033;-88
2021/01/10 05:00:57;;;;;;;5.28;3.65;;;1.90;82.40;;;;;;5038532;28;20024;-88
2021/01/10 05:03:25;;;;;;;5.80;3.60;;;1.90;82.40;;;;;;5035264;28;20018;-86
2021/01/10 05:05:50;;;;;;;4.97;3.13;;;1.90;82.40;;;;;;5027437;28;20022;-87
2021/01/10 05:08:16;;;;;;;4.65;3.75;;;1.90;82.30;;;;;;5019888;28;20388;-86
2021/01/10 05:10:41;;;;;;;4.93;3.65;;;1.90;82.30;;;;;;5037193;28;20013;-85
2021/01/10 05:13:07;;;;;;;3.63;2.80;;;1.90;82.30;;;;;;5027364;28;20061;-86
2021/01/10 05:15:36;;;;;;;3.97;3.00;;;1.90;82.30;;;;;;5031766;28;20033;-87
2021/01/10 05:18:02;;;;;;;4.63;3.08;;;1.80;82.30;;;;;;5034353;28;20021;-87
2021/01/10 05:20:32;;;;;;;5.30;3.10;;;1.80;82.30;;;;;;5018733;28;20120;-88
2021/01/10 05:22:59;;;;;;;4.72;2.88;;;1.90;82.40;;;;;;5012951;28;20037;-88
2021/01/10 05:25:26;;;;;;;4.15;2.53;;;1.80;82.40;;;;;;5011450;28;20037;-87
2021/01/10 05:27:53;;;;;;;3.33;2.60;;;1.80;82.40;;;;;;5005242;28;20017;-87
2021/01/10 05:30:31;;;;;;;4.22;2.70;;;1.80;82.60;;;;;;5007365;28;20034;-88
2021/01/10 05:33:02;;;;;;;5.70;3.03;;;1.90;82.50;;;;;;5010593;28;20041;-87
2021/01/10 05:35:28;;;;;;;4.63;2.80;;;1.90;82.50;;;;;;5010442;28;20026;-87
2021/01/10 05:37:55;;;;;;;5.75;3.13;;;1.80;82.40;;;;;;5013264;28;20472;-87
2021/01/10 05:40:28;;;;;;;5.88;3.10;;;1.90;82.50;;;;;;5007356;28;20483;-88
2021/01/10 05:42:56;;;;;;;3.90;3.03;;;1.90;82.40;;;;;;5018378;28;20026;-87
2021/01/10 05:45:35;;;;;;;4.15;2.90;;;1.90;82.40;;;;;;5004411;28;20017;-88
2021/01/10 05:48:14;;;;;;;3.80;2.90;;;1.90;82.30;;;;;;4994022;28;20085;-88
2021/01/10 05:50:48;;;;;;;5.28;3.58;;;1.90;82.30;;;;;;5004471;28;20068;-87
2021/01/10 05:53:19;;;;;;;4.88;3.35;;;1.90;82.20;;;;;;5008166;28;20471;-88
2021/01/10 05:56:17;;;;;;;5.28;3.53;;;1.90;82.20;;;;;;5003442;28;20471;-88
2021/01/10 05:58:43;;;;;;;5.38;3.50;;;1.90;82.20;;;;;;5002538;28;20042;-87
2021/01/10 06:01:13;;;;;;;6.93;4.10;;;2.00;82.30;;;;;;5009789;28;20018;-87
2021/01/10 06:03:38;;;;;;;5.70;3.65;;;1.90;82.20;;;;;;5011556;28;20018;-87
2021/01/10 06:06:05;;;;;;;6.72;3.65;;;1.90;82.40;;;;;;5010709;28;20040;-86
2021/01/10 06:08:36;;;;;;;5.85;3.78;;;1.90;82.50;;;;;;5009224;28;20042;-87
2021/01/10 06:11:24;;;;;;;7.03;4.10;;;2.00;82.50;;;;;;5016182;28;20024;-86
2021/01/10 06:13:55;;;;;;;6.68;4.25;;;2.00;82.40;;;;;;5009277;28;20070;-87
2021/01/10 06:16:24;;;;;;;7.53;5.18;;;1.90;82.40;;;;;;5011254;28;20034;-87
2021/01/10 06:18:59;;;;;;;8.80;5.00;;;2.00;82.50;;;;;;5002892;28;20056;-87
2021/01/10 06:21:27;;;;;;;8.18;4.47;;;2.00;82.40;;;;;;5010248;28;20058;-87
2021/01/10 06:24:04;;;;;;;12.10;5.82;;;2.10;82.40;;;;;;5009675;28;20026;-87
2021/01/10 06:26:33;;;;;;;8.32;4.88;;;2.00;82.30;;;;;;5010013;28;20029;-86
2021/01/10 06:29:01;;;;;;;8.98;5.80;;;2.10;82.40;;;;;;5012175;28;20022;-87
2021/01/10 06:31:30;;;;;;;6.88;4.60;;;2.10;82.50;;;;;;5010706;28;20030;-87
2021/01/10 06:33:59;;;;;;;7.45;4.18;;;2.10;82.50;;;;;;5016310;28;20096;-87
2021/01/10 06:36:27;;;;;;;8.98;4.97;;;2.10;82.50;;;;;;5003673;28;20112;-87
2021/01/10 06:38:59;;;;;;;5.90;4.13;;;2.10;82.50;;;;;;5009338;28;20034;-86
2021/01/10 06:41:24;;;;;;;7.07;4.90;;;2.20;82.60;;;;;;5015670;28;20022;-87
2021/01/10 06:43:57;;;;;;;5.60;3.85;;;2.20;82.60;;;;;;5016059;28;20042;-87
2021/01/10 06:46:24;;;;;;;6.30;3.50;;;2.20;82.50;;;;;;5013355;28;20021;-88
2021/01/10 06:48:50;;;;;;;7.38;4.18;;;2.30;82.60;;;;;;5026621;28;20014;-88
2021/01/10 06:51:16;;;;;;;5.80;4.13;;;2.30;82.50;;;;;;5013280;28;20029;-88
2021/01/10 06:53:42;;;;;;;7.18;3.25;;;2.30;82.60;;;;;;5003895;28;20041;-89
2021/01/10 06:56:08;;;;;;;6.03;3.72;;;2.30;82.70;;;;;;5006283;28;20026;-88
2021/01/10 06:58:33;;;;;;;6.07;4.38;;;2.30;82.70;;;;;;5007241;28;20026;-89
2021/01/10 07:00:59;;;;;;;6.20;4.10;;;2.40;82.80;;;;;;5007436;28;20470;-88
2021/01/10 07:03:26;;;;;;;7.25;4.40;;;2.40;82.80;;;;;;5010410;28;20033;-89
2021/01/10 07:06:08;;;;;;;6.93;4.38;;;2.40;82.70;;;;;;5010353;28;20014;-88
2021/01/10 07:08:52;;;;;;;6.78;4.78;;;2.40;82.70;;;;;;4996894;28;20036;-88
2021/01/10 07:11:23;;;;;;;5.57;3.72;;;2.50;82.60;;;;;;5009590;28;20061;-88
2021/01/10 07:13:50;;;;;;;5.75;3.60;;;2.50;82.60;;;;;;5008260;28;20046;-87
2021/01/10 07:16:17;;;;;;;8.00;4.25;;;2.50;82.60;;;;;;5008720;28;20160;-88
2021/01/10 07:18:50;;;;;;;6.65;4.10;;;2.50;82.60;;;;;;5009672;28;20080;-89
2021/01/10 07:21:28;;;;;;;7.13;4.20;;;2.50;82.70;;;;;;5009224;28;20091;-88
2021/01/10 07:24:15;;;;;;;5.90;4.22;;;2.50;82.70;;;;;;5009862;28;20088;-88
2021/01/10 07:26:42;;;;;;;6.60;4.60;;;2.50;82.80;;;;;;5005508;28;20037;-88
2021/01/10 07:29:29;;;;;;;6.93;4.50;;;2.50;82.80;;;;;;5009818;28;20163;-88
2021/01/10 07:31:59;;;;;;;7.60;4.70;;;2.50;82.90;;;;;;5001432;28;20041;-88
2021/01/10 07:34:25;;;;;;;7.47;4.35;;;2.50;82.90;;;;;;5008258;28;20042;-88
2021/01/10 07:36:59;;;;;;;6.50;4.40;;;2.50;82.90;;;;;;5001328;28;20034;-88
2021/01/10 07:39:29;;;;;;;8.77;4.80;;;2.60;82.90;;;;;;5016435;28;20021;-89
2021/01/10 07:42:16;;;;;;;7.90;4.95;;;2.50;82.80;;;;;;5020210;28;20036;-89
2021/01/10 07:45:17;;;;;;;8.88;6.00;;;2.50;82.80;;;;;;5011723;28;20072;-87
2021/01/10 07:47:47;;;;;;;7.20;5.20;;;2.50;82.90;;;;;;5008662;28;20028;-87
2021/01/10 07:50:24;;;;;;;5.85;4.78;;;2.50;82.90;;;;;;5009420;28;20452;-87
2021/01/10 07:52:54;;;;;;;6.88;4.78;;;2.50;82.90;;;;;;5009362;28;20385;-88
2021/01/10 07:55:21;;;;;;;9.27;6.15;;;2.50;83.00;;;;;;5009133;28;20033;-87
2021/01/10 07:58:10;;;;;;;9.32;6.38;;;2.50;83.00;;;;;;5018604;28;20038;-88
2021/01/10 08:00:49;;;;;;;6.57;5.20;;;2.50;83.10;;;;;;5010074;28;20034;-89
2021/01/10 08:03:25;;;;;;;6.65;5.05;;;2.50;83.10;;;;;;5010898;28;20029;-89
2021/01/10 08:06:05;;;;;;;9.00;6.75;;;2.50;83.20;;;;;;5011391;28;20105;-89
2021/01/10 08:08:40;;;;;;;8.73;5.53;;;2.50;83.20;;;;;;5013854;28;20065;-89
2021/01/10 08:11:07;;;;;;;9.18;6.10;;;2.50;83.30;;;;;;5024390;28;20022;-88
2021/01/10 08:13:36;;;;;;;7.57;5.15;;;2.50;83.30;;;;;;5015851;28;20074;-88
2021/01/10 08:16:32;;;;;;;6.15;3.65;;;2.50;83.20;;;;;;5009128;28;20019;-87
2021/01/10 08:19:07;;;;;;;4.35;3.83;;;2.60;83.30;;;;;;5015240;28;20026;-88
2021/01/10 08:21:32;;;;;;;8.05;4.28;;;2.60;83.50;;;;;;5033549;28;20014;-89
2021/01/10 08:23:58;;;;;;;6.57;4.72;;;2.70;83.20;;;;;;5020589;28;20119;-90
2021/01/10 08:26:24;;;;;;;8.05;4.85;;;2.70;83.20;;;;;;5021814;28;20081;-90
2021/01/10 08:28:55;;;;;;;5.60;3.55;;;2.80;83.20;;;;;;5015220;28;20239;-90
2021/01/10 08:31:26;;;;;;;5.03;3.42;;;2.90;83.20;;;;;;5019183;28;20034;-90
2021/01/10 08:34:06;;;;;;;5.28;3.85;;;2.90;83.10;;;;;;5013925;28;20041;-90
2021/01/10 08:36:33;;;;;;;7.47;4.70;;;2.90;83.10;;;;;;5025334;28;20073;-90
2021/01/10 08:39:05;;;;;;;8.38;4.97;;;2.90;83.00;;;;;;5019327;28;20014;-91
2021/01/10 08:41:38;;;;;;;6.10;3.47;;;3.00;83.00;;;;;;5024960;28;20065;-90
2021/01/10 08:44:09;;;;;;;9.18;5.70;;;2.90;82.90;;;;;;5017454;28;20021;-88
2021/01/10 08:46:38;;;;;;;7.68;5.60;;;2.90;82.90;;;;;;5024808;28;20030;-90
2021/01/10 08:49:05;;;;;;;7.00;5.22;;;2.90;82.90;;;;;;5018501;28;20021;-90
2021/01/10 08:51:34;;;;;;;6.75;4.93;;;3.00;83.00;;;;;;5021551;28;20048;-89
2021/01/10 08:54:02;;;;;;;7.93;5.47;;;3.00;83.00;;;;;;5016003;28;20034;-89
2021/01/10 08:56:30;;;;;;;5.57;4.32;;;3.00;82.90;;;;;;5022587;28;20028;-89
2021/01/10 08:58:56;;;;;;;8.40;6.43;;;3.00;82.90;;;;;;5018443;28;20383;-90
2021/01/10 09:01:24;;;;;;;5.85;4.18;;;3.00;82.90;;;;;;5025122;28;20364;-90
2021/01/10 09:03:58;;;;;;;8.57;6.35;;;3.00;82.90;;;;;;5018353;28;20483;-90
2021/01/10 09:06:31;;;;;;;8.07;5.72;;;3.00;83.00;;;;;;5015783;28;20487;-88
2021/01/10 09:09:03;;;;;;;7.25;6.03;;;3.00;82.90;;;;;;5027627;28;20026;-89
2021/01/10 09:11:31;;;;;;;10.68;6.13;;;3.00;82.90;;;;;;5030955;28;20021;-89
2021/01/10 09:14:00;;;;;;;11.68;7.47;;;3.00;82.90;;;;;;5023087;28;20022;-88
2021/01/10 09:16:30;;;;;;;12.95;8.80;;;3.10;82.90;;;;;;5038037;28;20010;-90
2021/01/10 09:18:57;;;;;;;12.07;7.80;;;3.00;82.90;;;;;;5041144;28;20029;-89
2021/01/10 09:21:27;;;;;;;13.50;9.32;;;3.00;83.00;;;;;;5033410;28;20168;-89
2021/01/10 09:23:58;;;;;;;11.65;7.00;;;3.00;83.00;;;;;;5023451;28;20026;-89
2021/01/10 09:26:32;;;;;;;11.77;7.00;;;2.90;83.10;;;;;;5035021;28;20072;-88
2021/01/10 09:29:00;;;;;;;8.80;7.03;;;3.00;83.10;;;;;;5027015;28;20041;-89
2021/01/10 09:31:43;;;;;;;9.52;7.07;;;3.00;83.10;;;;;;5014096;28;20122;-90
2021/01/10 09:34:10;;;;;;;8.50;6.18;;;3.00;83.10;;;;;;5012127;28;20096;-89
2021/01/10 09:36:36;;;;;;;14.15;9.30;;;3.00;83.00;;;;;;5013349;28;20021;-86
2021/01/10 09:39:04;;;;;;;9.55;7.95;;;3.00;83.00;;;;;;5010991;28;20026;-90
2021/01/10 09:41:29;;;;;;;7.22;5.35;;;3.00;83.10;;;;;;5028437;28;20121;-89
2021/01/10 09:43:56;;;;;;;9.27;6.75;;;3.00;83.10;;;;;;5013749;28;20144;-89
2021/01/10 09:46:39;;;;;;;11.82;7.20;;;3.00;83.10;;;;;;5014687;28;20455;-89
2021/01/10 09:49:16;;;;;;;9.68;7.38;;;3.00;83.20;;;;;;5015373;28;20018;-89
2021/01/10 09:51:55;;;;;;;8.98;6.03;;;3.00;83.30;;;;;;5031607;28;20014;-86
2021/01/10 09:54:22;;;;;;;8.68;6.65;;;3.00;83.20;;;;;;5013514;28;20046;-93
2021/01/10 09:56:58;;;;;;;11.50;8.27;;;3.10;83.20;;;;;;5025070;28;20089;-94
2021/01/10 09:59:41;;;;;;;9.38;5.78;;;3.10;83.20;;;;;;5025048;28;20028;-89
2021/01/10 10:02:07;;;;;;;;;;;3.10;83.20;;;;;;5017355;28;20065;-91
2021/01/10 10:04:32;;;;;;;10.95;8.18;;;3.20;83.10;;;;;;5018525;28;19945;-88
2021/01/10 10:06:58;;;;;;;11.45;8.30;;;3.30;83.10;;;;;;5021766;28;20026;-87
2021/01/10 10:09:47;;;;;;;10.45;6.55;;;3.20;83.00;;;;;;5012336;28;20116;-89
2021/01/10 10:12:13;;;;;;;10.50;6.97;;;3.30;83.10;;;;;;5016642;28;20025;-89
2021/01/10 10:14:38;;;;;;;9.50;7.18;;;3.30;83.00;;;;;;5013752;28;20042;-89
2021/01/10 10:17:04;;;;;;;7.20;5.20;;;3.40;83.00;;;;;;5008294;28;20113;-89
2021/01/10 10:19:29;;;;;;;10.00;8.27;;;3.40;82.90;;;;;;4991232;28;20037;-89
2021/01/10 10:21:55;;;;;;;12.50;9.27;;;3.40;82.90;;;;;;5012560;28;20022;-89
2021/01/10 10:24:20;;;;;;;7.93;6.32;;;3.50;82.90;;;;;;5007524;28;20034;-88
2021/01/10 10:26:46;;;;;;;8.50;6.43;;;3.50;82.90;;;;;;5014028;28;20136;-89
2021/01/10 10:29:12;;;;;;;10.05;7.32;;;3.60;82.90;;;;;;5015774;28;20108;-89
2021/01/10 10:31:38;;;;;;;11.43;8.60;;;3.60;82.80;;;;;;5027254;28;20022;-89
2021/01/10 10:34:03;;;;;;;11.85;9.32;;;3.60;82.80;;;;;;5019804;28;20068;-90
2021/01/10 10:36:31;;;;;;;12.93;9.82;;;3.60;82.90;;;;;;5022233;28;20025;-88
2021/01/10 10:38:57;;;;;;;14.48;10.02;;;3.60;82.90;;;;;;5016724;28;20117;-88
2021/01/10 10:41:22;;;;;;;9.82;6.68;;;3.60;82.90;;;;;;5014433;28;20117;-89
2021/01/10 10:43:48;;;;;;;8.93;7.55;;;3.50;82.90;;;;;;5016983;28;20499;-90
2021/01/10 10:46:14;;;;;;;11.50;9.43;;;3.60;82.90;;;;;;5017483;28;20048;-90
2021/01/10 10:48:41;;;;;;;11.18;9.45;;;3.60;82.90;;;;;;5021809;28;20032;-91
2021/01/10 10:51:07;;;;;;;12.23;8.40;;;3.60;82.90;;;;;;5019819;28;20021;-89
2021/01/10 10:53:32;;;;;;;10.32;8.43;;;3.70;82.90;;;;;;5018211;28;20038;-90
2021/01/10 10:55:58;;;;;;;15.60;11.38;;;3.70;82.80;;;;;;5019175;28;20161;-89
2021/01/10 10:58:24;;;;;;;11.43;8.38;;;3.70;82.80;;;;;;5016502;28;20091;-89
2021/01/10 11:00:52;;;;;;;8.85;6.57;;;3.70;82.90;;;;;;5014319;28;20518;-91
2021/01/10 11:03:17;;;;;;;8.82;6.63;;;3.70;83.00;;;;;;5012916;28;20077;-90
2021/01/10 11:05:45;;;;;;;9.73;7.32;;;3.70;82.90;;;;;;5013537;28;20065;-90
2021/01/10 11:08:11;;;;;;;10.05;8.05;;;3.80;82.90;;;;;;5016477;28;20029;-90
2021/01/10 11:10:37;;;;;;;8.77;6.80;;;3.70;82.80;;;;;;5008966;28;20385;-90
2021/01/10 11:13:02;;;;;;;12.10;9.60;;;3.80;82.90;;;;;;5004937;28;20128;-89
2021/01/10 11:15:28;;;;;;;7.80;5.03;;;3.80;83.00;;;;;;5013878;28;20041;-90
2021/01/10 11:17:54;;;;;;;8.45;6.43;;;3.80;83.00;;;;;;5010190;28;20033;-88
2021/01/10 11:20:19;;;;;;;7.35;5.93;;;3.90;83.00;;;;;;5024247;28;20030;-88
2021/01/10 11:22:48;;;;;;;14.45;10.48;;;4.00;82.90;;;;;;5017262;28;20022;-91
2021/01/10 11:25:13;;;;;;;11.02;8.40;;;4.00;82.80;;;;;;5021525;28;20041;-89
2021/01/10 11:27:45;;;;;;;14.75;9.00;;;4.10;82.70;;;;;;5015263;28;20053;-94
2021/01/10 11:30:11;;;;;;;8.35;6.00;;;4.10;82.60;;;;;;5016132;28;20064;-92
2021/01/10 11:32:37;;;;;;;8.63;6.50;;;4.20;82.60;;;;;;5016273;28;20026;-95
2021/01/10 11:35:03;;;;;;;12.50;9.23;;;4.30;82.40;;;;;;5016910;28;20067;-92
2021/01/10 11:37:29;;;;;;;11.07;7.85;;;4.40;82.30;;;;;;5021162;28;20116;-91
2021/01/10 11:39:54;;;;;;;9.40;6.75;;;4.40;82.30;;;;;;5015338;28;20113;-91
2021/01/10 11:42:20;;;;;;;7.68;5.88;;;4.40;82.10;;;;;;5011674;28;20026;-93
2021/01/10 11:44:48;;;;;;;8.15;5.95;;;4.50;82.10;;;;;;5010301;28;20334;-95
2021/01/10 11:47:23;;;;;;;8.43;6.32;;;4.50;82.60;;;;;;5014191;28;20467;-96
2021/01/10 11:49:49;;;;;;;8.63;5.72;;;4.60;81.90;;;;;;5015545;28;20484;-88
2021/01/10 11:52:14;;;;;;;10.85;7.40;;;4.60;81.80;;;;;;5012530;28;20087;-92
2021/01/10 11:54:40;;;;;;;8.05;6.20;;;4.60;81.70;;;;;;5021964;28;20065;-93
2021/01/10 11:57:05;;;;;;;9.25;6.57;;;4.80;81.80;;;;;;5020602;28;20037;-95
2021/01/10 11:59:31;;;;;;;9.13;6.07;;;4.80;81.60;;;;;;5010563;28;20089;-94
2021/01/10 12:01:57;;;;;;;7.95;5.93;;;4.90;81.40;;;;;;5021547;28;20026;-95
2021/01/10 12:04:22;;;;;;;12.80;8.65;;;5.00;81.20;;;;;;5013320;28;20030;-96
2021/01/10 12:06:48;;;;;;;9.68;7.07;;;5.10;81.00;;;;;;5014600;28;20053;-93
2021/01/10 12:09:14;;;;;;;8.15;6.50;;;5.20;80.80;;;;;;5011778;28;20029;-94
2021/01/10 12:11:40;;;;;;;5.55;4.25;;;5.30;80.60;;;;;;5015147;28;20058;-95
2021/01/10 12:14:07;;;;;;;5.32;4.03;;;5.40;80.40;;;;;;5025979;28;20065;-92
2021/01/10 12:16:38;;;;;;;8.40;5.57;;;5.50;80.20;;;;;;5027488;28;20041;-90
2021/01/10 12:19:05;;;;;;;8.70;6.05;;;5.60;80.00;;;;;;5015571;28;20030;-95
2021/01/10 12:21:47;;;;;;;7.35;5.03;;;5.60;79.80;;;;;;5018917;28;20026;-96
2021/01/10 12:24:14;;;;;;;9.30;6.10;;;5.60;79.50;;;;;;5016854;28;20029;-96
2021/01/10 12:31:01;;;;;;;6.05;4.57;;;5.70;79.10;;;;;;4965692;28;20034;-95
2021/01/10 12:33:27;;;;;;;5.55;4.38;;;5.70;79.30;;;;;;5011843;28;20108;-95
2021/01/10 12:36:04;;;;;;;8.15;5.38;;;5.80;79.40;;;;;;5026989;28;20027;-96
2021/01/10 12:38:35;;;;;;;6.45;4.47;;;6.10;79.70;;;;;;5024763;28;20038;-96
2021/01/10 12:41:01;;;;;;;6.03;5.00;;;7.40;78.10;;;;;;5011633;28;20176;-91
2021/01/10 12:43:27;;;;;;;7.15;4.93;;;8.30;75.80;;;;;;5008847;28;20022;-94
2021/01/10 12:46:06;;;;;;;;;;;;;;;;;;;;;
2021/01/10 12:48:32;;;;;;;5.68;4.80;;;9.20;73.30;;;;;;5019542;28;20086;-90
2021/01/10 12:51:19;;;;;;;;;;;;;;;;;;;;;
2021/01/10 12:54:17;;;;;;;;;;;;;;;;;;;;;
2021/01/10 12:56:56;;;;;;;5.07;3.75;;;9.80;71.80;;;;;;5006428;28;20044;-93
2021/01/10 12:59:22;;;;;;;5.30;3.72;;;10.40;71.80;;;;;;5011034;28;20048;-93
2021/01/10 13:02:21;;;;;;;;;;;;;;;;;;;;;
2021/01/10 13:04:56;;;;;;;5.88;4.00;;;11.10;70.50;;;;;;5013190;28;20101;-93
2021/01/10 13:10:15;;;;;;;7.15;4.68;;;11.80;68.10;;;;;;5186110;22;20046;-96
2021/01/10 13:12:42;;;;;;;4.78;3.53;;;11.80;66.90;;;;;;5014875;28;20033;-94
2021/01/10 13:15:09;;;;;;;5.40;3.30;;;11.80;67.40;;;;;;5015653;28;20044;-93
2021/01/10 13:17:35;;;;;;;4.10;3.13;;;11.60;67.40;;;;;;4999359;28;20040;-95